Clifton Forge, Virginia
Current Conditions -  °F | °C
As of 9:15 AM on Monday 26 Jan 2015 (Local Time) from KLWB Reporting Station
Haze Haze  
Wind Chill: 35°   Ceiling: 3300
Heat Index: 35°   Visibility: 4mi
Dew Point: 34°   Wind: 3mph
Humidity: 96%   Direction: 20°NNE
Pressure: 29.64"   Gusts: NA
Location:  37.82°N, 79.83°W
Report Text: KLWB 261415Z AUTO 02003KT 4SM BR OVC033 02/01 A2964 RMK AO2 T00180012
Loading
Personal Weather Stations






























Interactive Weather Map New forecast layout! Learn more

10-Day Weather Forecast

Advertisements
Track Severe Weather on mobile